Freedom — ZCOK2 — position and weather

sailwx.info

Track history (hours):
 
Tides and Currents Weather Stations Pressure Air Temp Water Temp Dewpoint Dewpoint Depression Visibility Wind Speed Wind Dir Waves Ship Positions

Freedom

Last reported at 2018-Jun-21 09:31 UTC. Time now 2018-Jun-25 05:43 UTC.
Position N 41°09' W 072°22'.

Length 70 m; draft 3.8 m.

Type: Pleasure craft. MMSI: 319107000.

Date/timePositionNaut miles runAvg speedWind from/ knotsBaromVisibWave heightAir tempDewpointWater temp
2018-Jun-21 09:31N 41°09' W 072°22'0 8.2
2018-Jun-21 09:30N 41°09' W 072°22'4 8.2
2018-Jun-21 09:00N 41°09' W 072°27'4 8.1
2018-Jun-21 08:30N 41°08' W 072°32'4 7.3
2018-Jun-21 07:59N 41°07' W 072°37'64 7.0
2018-Jun-20 22:46N 40°45' W 073°58'310.6
2018-Jun-20 22:30N 40°43' W 073°58'3 5.5
2018-Jun-20 22:00N 40°42' W 074°02'2 4.1
2018-Jun-20 21:30N 40°44' W 074°01'0 0.2
2018-Jun-20 19:59N 40°44' W 074°01'2 3.8
2018-Jun-20 19:30N 40°42' W 074°02'0 0.9
2018-Jun-20 19:00N 40°42' W 074°02'0 0.0
2018-Jun-20 18:28N 40°42' W 074°02'0 0.0
2018-Jun-20 17:58N 40°42' W 074°02'0 0.0
2018-Jun-20 17:30N 40°42' W 074°02'0 0.0
2018-Jun-20 17:00N 40°42' W 074°02'0 0.0
2018-Jun-20 16:30N 40°42' W 074°02'0 0.0
2018-Jun-20 16:00N 40°42' W 074°02'0 0.0
2018-Jun-20 15:29N 40°42' W 074°02'0 0.0
2018-Jun-20 14:59N 40°42' W 074°02'0 0.0
2018-Jun-20 14:29N 40°42' W 074°02'0 0.0
2018-Jun-20 13:59N 40°42' W 074°02'0 0.0
2018-Jun-20 13:29N 40°42' W 074°02'0 0.0
2018-Jun-20 12:58N 40°42' W 074°02'0 0.0
2018-Jun-20 12:28N 40°42' W 074°02'0 0.0
2018-Jun-20 11:58N 40°42' W 074°02'0 0.0
2018-Jun-20 11:28N 40°42' W 074°02'0 0.0
2018-Jun-20 11:01N 40°42' W 074°02'0 0.0
2018-Jun-20 10:30N 40°42' W 074°02'0 0.0
2018-Jun-20 10:00N 40°42' W 074°02'0 0.0
2018-Jun-20 09:30N 40°42' W 074°02'0 0.0
2018-Jun-20 09:00N 40°42' W 074°02'0 0.0
2018-Jun-20 08:29N 40°42' W 074°02'0 0.0
2018-Jun-20 07:59N 40°42' W 074°02'0 0.0
2018-Jun-20 07:29N 40°42' W 074°02'0 0.0
2018-Jun-20 06:59N 40°42' W 074°02'0 0.0
2018-Jun-20 06:29N 40°42' W 074°02'0 0.0
2018-Jun-20 05:58N 40°42' W 074°02'0 0.0
2018-Jun-20 05:28N 40°42' W 074°02'0 0.0
2018-Jun-20 04:58N 40°42' W 074°02'0 0.0
2018-Jun-20 04:28N 40°42' W 074°02'0 0.0
2018-Jun-20 04:00N 40°42' W 074°02'0 0.0
2018-Jun-20 03:30N 40°42' W 074°02'0 0.0
2018-Jun-20 03:00N 40°42' W 074°02'0 0.0
2018-Jun-20 02:30N 40°42' W 074°02'0 0.0
2018-Jun-20 02:00N 40°42' W 074°02'0 0.0
2018-Jun-20 01:29N 40°42' W 074°02'0 0.0
2018-Jun-20 00:59N 40°42' W 074°02'0 0.0
2018-Jun-20 00:29N 40°42' W 074°02'0 0.0
2018-Jun-19 23:59N 40°42' W 074°02'0 0.0
2018-Jun-19 23:29N 40°42' W 074°02'0 0.0
2018-Jun-19 22:58N 40°42' W 074°02'0 0.0
2018-Jun-19 22:28N 40°42' W 074°02'0 0.0
2018-Jun-19 21:58N 40°42' W 074°02'0 0.0
2018-Jun-19 21:28N 40°42' W 074°02'0 0.0
2018-Jun-19 21:00N 40°42' W 074°02'0 0.0
2018-Jun-19 20:30N 40°42' W 074°02'0 0.1
2018-Jun-19 20:00N 40°42' W 074°02'0 0.0
2018-Jun-19 19:30N 40°42' W 074°02'0 0.0
2018-Jun-19 19:00N 40°42' W 074°02'0 0.0
2018-Jun-19 18:29N 40°42' W 074°02'0 0.0
2018-Jun-19 17:59N 40°42' W 074°02'0 0.0
2018-Jun-19 17:29N 40°42' W 074°02'0 0.0
2018-Jun-19 16:59N 40°42' W 074°02'0 0.0
2018-Jun-19 16:29N 40°42' W 074°02'0 0.0
2018-Jun-19 15:58N 40°42' W 074°02'0 0.0
2018-Jun-19 15:28N 40°42' W 074°02'0 0.0
2018-Jun-19 14:58N 40°42' W 074°02'0 0.0
2018-Jun-19 14:28N 40°42' W 074°02'0 0.0
2018-Jun-19 14:00N 40°42' W 074°02'0 0.0
2018-Jun-19 13:30N 40°42' W 074°02'0 0.0
2018-Jun-19 13:00N 40°42' W 074°02'0 0.0
2018-Jun-19 12:30N 40°42' W 074°02'0 0.0
2018-Jun-19 12:00N 40°42' W 074°02'0 0.0
2018-Jun-19 11:29N 40°42' W 074°02'0 0.0
2018-Jun-19 10:59N 40°42' W 074°02'0 0.0
2018-Jun-19 10:29N 40°42' W 074°02'0 0.0
2018-Jun-19 09:59N 40°42' W 074°02'0 0.0
2018-Jun-19 09:28N 40°42' W 074°02'0 0.0
2018-Jun-19 08:58N 40°42' W 074°02'0 0.0
2018-Jun-19 08:28N 40°42' W 074°02'0 0.0
2018-Jun-19 07:58N 40°42' W 074°02'0 0.0
2018-Jun-19 07:28N 40°42' W 074°02'0 0.0
2018-Jun-19 07:00N 40°42' W 074°02'0 0.0
2018-Jun-19 06:30N 40°42' W 074°02'0 0.0
2018-Jun-19 05:57N 40°42' W 074°02'0 0.0
2018-Jun-19 05:30N 40°42' W 074°02'0 0.0
2018-Jun-19 05:00N 40°42' W 074°02'0 0.0
2018-Jun-19 04:29N 40°42' W 074°02'0 0.0
2018-Jun-19 03:59N 40°42' W 074°02'0 0.0
2018-Jun-19 03:29N 40°42' W 074°02'0 0.0
2018-Jun-19 02:59N 40°42' W 074°02'0 0.1
2018-Jun-19 02:28N 40°42' W 074°02'0 0.0
2018-Jun-19 01:58N 40°42' W 074°02'0 0.0
2018-Jun-19 01:28N 40°42' W 074°02'0 0.0
2018-Jun-19 00:58N 40°42' W 074°02'0 0.0
2018-Jun-19 00:28N 40°42' W 074°02'0 0.0
2018-Jun-19 00:00N 40°42' W 074°02'0 0.0
2018-Jun-18 23:30N 40°42' W 074°02'0 0.0
2018-Jun-18 23:00N 40°42' W 074°02'0 0.1
2018-Jun-18 22:30N 40°42' W 074°02'0 0.0
2018-Jun-18 21:59N 40°42' W 074°02'0 0.0
2018-Jun-18 21:29N 40°42' W 074°02'0 0.1
2018-Jun-18 20:59N 40°42' W 074°02'0 0.0
2018-Jun-18 20:29N 40°42' W 074°02'0 0.0
2018-Jun-18 19:59N 40°42' W 074°02'0 0.0
2018-Jun-18 19:28N 40°42' W 074°02'0 0.0
2018-Jun-18 18:58N 40°42' W 074°02'0 0.0
2018-Jun-18 18:25N 40°42' W 074°02'0 0.0
2018-Jun-18 17:58N 40°42' W 074°02'0 0.0
2018-Jun-18 17:28N 40°42' W 074°02'0 0.0
2018-Jun-18 17:00N 40°42' W 074°02'0 0.0
2018-Jun-18 16:30N 40°42' W 074°02'0 0.0
2018-Jun-18 16:00N 40°42' W 074°02'0 0.0
2018-Jun-18 15:30N 40°42' W 074°02'0 0.1
2018-Jun-18 15:00N 40°42' W 074°02'0 0.0
2018-Jun-18 14:29N 40°42' W 074°02'0 0.0
2018-Jun-18 13:59N 40°42' W 074°02'0 0.0
2018-Jun-18 13:29N 40°42' W 074°02'0 0.0
2018-Jun-18 12:59N 40°42' W 074°02'0 0.0
2018-Jun-18 12:28N 40°42' W 074°02'0 0.0
2018-Jun-18 11:58N 40°42' W 074°02'0 0.0
2018-Jun-18 11:25N 40°42' W 074°02'0 0.0
2018-Jun-18 10:58N 40°42' W 074°02'0 0.0
2018-Jun-18 10:28N 40°42' W 074°02'0 0.0
2018-Jun-18 10:00N 40°42' W 074°02'0 0.0
2018-Jun-18 09:30N 40°42' W 074°02'0 0.0
2018-Jun-18 09:00N 40°42' W 074°02'0 0.0
2018-Jun-18 08:30N 40°42' W 074°02'0 0.0
2018-Jun-18 08:00N 40°42' W 074°02'0 0.0
2018-Jun-18 07:29N 40°42' W 074°02'0 0.0
2018-Jun-18 06:59N 40°42' W 074°02'0 0.0
2018-Jun-18 06:29N 40°42' W 074°02'0 0.1
2018-Jun-18 05:59N 40°42' W 074°02'0 0.0
2018-Jun-18 05:28N 40°42' W 074°02'0 0.0
2018-Jun-18 04:58N 40°42' W 074°02'0 0.0
2018-Jun-18 04:28N 40°42' W 074°02'0 0.0
2018-Jun-18 03:58N 40°42' W 074°02'0 0.0
2018-Jun-18 03:31N 40°42' W 074°02'0 0.0
2018-Jun-18 03:00N 40°42' W 074°02'0 0.0
2018-Jun-18 02:30N 40°42' W 074°02'0 0.0
2018-Jun-18 02:00N 40°42' W 074°02'0 0.0
2018-Jun-18 01:30N 40°42' W 074°02'0 0.0
2018-Jun-18 00:59N 40°42' W 074°02'0 0.0
2018-Jun-18 00:29N 40°42' W 074°02'0 0.0
2018-Jun-17 23:59N 40°42' W 074°02'0 0.0
2018-Jun-17 23:29N 40°42' W 074°02'0 0.0
2018-Jun-17 22:59N 40°42' W 074°02'0 0.0
2018-Jun-17 22:28N 40°42' W 074°02'0 0.0
2018-Jun-17 21:55N 40°42' W 074°02'0 0.0
2018-Jun-17 21:28N 40°42' W 074°02'0 0.0
2018-Jun-17 20:58N 40°42' W 074°02'0 0.0
2018-Jun-17 20:29N 40°42' W 074°02'0 0.1
2018-Jun-17 19:59N 40°42' W 074°02'0 0.0
2018-Jun-17 19:20N 40°42' W 074°02'0 0.0
2018-Jun-17 18:58N 40°42' W 074°02'0 0.0
2018-Jun-17 18:28N 40°42' W 074°02'0 0.0
2018-Jun-17 17:58N 40°42' W 074°02'0 0.0
2018-Jun-17 17:25N 40°42' W 074°02'0 0.0
2018-Jun-17 16:58N 40°42' W 074°02'0 0.0
2018-Jun-17 16:30N 40°42' W 074°02'0 0.0
2018-Jun-17 15:57N 40°42' W 074°02'0 0.0
2018-Jun-17 14:36N 40°42' W 074°02'0 0.1
2018-Jun-17 14:29N 40°42' W 074°02'0 0.0
2018-Jun-17 13:59N 40°42' W 074°02'0 0.0
2018-Jun-17 13:29N 40°42' W 074°02'0 0.0
2018-Jun-17 12:50N 40°42' W 074°02'0 0.0
2018-Jun-17 12:29N 40°42' W 074°02'0 0.0
2018-Jun-17 11:58N 40°42' W 074°02'0 0.0
2018-Jun-17 11:28N 40°42' W 074°02'1 1.4
2018-Jun-17 11:00N 40°41' W 074°02'4 7.2
2018-Jun-17 10:30N 40°38' W 074°03'107 9.8
2018-Jun-16 23:36N 38°51' W 073°55'112.0
2018-Jun-16 23:30N 38°50' W 073°55'  
2018-Jun-14 17:04N 26°16' W 079°57'215.0
2018-Jun-14 16:55N 26°14' W 079°58'614.6
2018-Jun-14 16:30N 26°09' W 080°01'611.6
2018-Jun-14 16:00N 26°06' W 080°07'0 0.3
2018-Jun-14 15:30N 26°05' W 080°07'1 3.0
2018-Jun-14 15:00N 26°04' W 080°07'1 1.6
2018-Jun-14 14:23N 26°04' W 080°08'0 0.0
2018-Jun-14 13:56N 26°04' W 080°08'0 0.0
2018-Jun-14 13:19N 26°04' W 080°08'0 0.0
2018-Jun-14 12:58N 26°04' W 080°08'0 0.0
2018-Jun-14 12:28N 26°04' W 080°08'0 0.0
2018-Jun-14 11:58N 26°04' W 080°08'0 0.0
2018-Jun-14 11:21N 26°04' W 080°08'0 0.0
2018-Jun-14 11:00N 26°04' W 080°08'0 0.0
2018-Jun-14 10:30N 26°04' W 080°08'0 0.0
2018-Jun-14 10:00N 26°04' W 080°08'0 0.0
2018-Jun-14 09:24N 26°04' W 080°08'0 0.0
2018-Jun-14 08:50N 26°04' W 080°08'0 0.0
2018-Jun-14 08:29N 26°04' W 080°08'0 0.0
2018-Jun-14 07:59N 26°04' W 080°08'0 0.0
2018-Jun-14 07:26N 26°04' W 080°08'0 0.0
2018-Jun-14 06:52N 26°04' W 080°08'0 0.0
2018-Jun-14 06:19N 26°04' W 080°08'0 0.0
2018-Jun-14 05:58N 26°04' W 080°08'0 0.0
2018-Jun-14 05:28N 26°04' W 080°08'0 0.0
2018-Jun-14 04:55N 26°04' W 080°08'0 0.0
2018-Jun-14 04:21N 26°04' W 080°08'0 0.0
2018-Jun-14 04:00N 26°04' W 080°08'0 0.0
2018-Jun-14 03:30N 26°04' W 080°08'0 0.0
2018-Jun-14 02:57N 26°04' W 080°08'0 0.0
2018-Jun-14 02:24N 26°04' W 080°08'0 0.0
2018-Jun-14 01:50N 26°04' W 080°08'0 0.0
2018-Jun-14 01:29N 26°04' W 080°08'0 0.0
2018-Jun-14 00:59N 26°04' W 080°08'0 0.0
2018-Jun-14 00:26N 26°04' W 080°08'0 0.0
2018-Jun-13 23:52N 26°04' W 080°08'0 0.0
2018-Jun-13 23:19N 26°04' W 080°08'0 0.0
2018-Jun-13 22:58N 26°04' W 080°08'0 0.0
2018-Jun-13 22:28N 26°04' W 080°08'0 0.0
2018-Jun-13 21:55N 26°04' W 080°08'0 0.0
2018-Jun-13 21:21N 26°04' W 080°08'0 0.0
2018-Jun-13 21:00N 26°04' W 080°08'0 0.0
2018-Jun-13 20:30N 26°04' W 080°08'0 0.0
2018-Jun-13 19:57N 26°04' W 080°08'0 0.0
2018-Jun-13 19:24N 26°04' W 080°08'0 0.0
2018-Jun-13 18:47N 26°04' W 080°08'0 0.0
2018-Jun-13 18:17N 26°04' W 080°08'0 0.0
2018-Jun-13 17:59N 26°04' W 080°08'0 0.0
2018-Jun-13 17:26N 26°04' W 080°08'0 0.0
2018-Jun-13 16:52N 26°04' W 080°08'0 0.0
2018-Jun-13 16:19N 26°04' W 080°08'0 0.0
2018-Jun-13 15:58N 26°04' W 080°08'0 0.0
2018-Jun-13 15:28N 26°04' W 080°08'0 0.0
2018-Jun-13 14:55N 26°04' W 080°08'0 0.0
2018-Jun-13 14:21N 26°04' W 080°08'0 0.0
2018-Jun-13 13:48N 26°04' W 080°08'0 0.0
2018-Jun-13 13:30N 26°04' W 080°08'0 0.0
2018-Jun-13 12:57N 26°04' W 080°08'0 0.0
2018-Jun-13 12:24N 26°04' W 080°08'0 0.0
2018-Jun-13 11:50N 26°04' W 080°08'0 0.0
2018-Jun-13 11:29N 26°04' W 080°08'0 0.0
2018-Jun-13 10:59N 26°04' W 080°08'0 0.0
2018-Jun-13 10:26N 26°04' W 080°08'0 0.0
2018-Jun-13 09:52N 26°04' W 080°08'0 0.0
2018-Jun-13 09:28N 26°04' W 080°08'0 0.0
2018-Jun-13 08:58N 26°04' W 080°08'0 0.0
2018-Jun-13 08:28N 26°04' W 080°08'0 0.0
2018-Jun-13 07:55N 26°04' W 080°08'0 0.0
2018-Jun-13 07:21N 26°04' W 080°08'0 0.0
2018-Jun-13 07:00N 26°04' W 080°08'0 0.0
2018-Jun-13 06:30N 26°04' W 080°08'0 0.0
2018-Jun-13 05:57N 26°04' W 080°08'0 0.0
2018-Jun-13 05:23N 26°04' W 080°08'0 0.0
2018-Jun-13 04:59N 26°04' W 080°08'0 0.0
2018-Jun-13 04:29N 26°04' W 080°08'0 0.0
2018-Jun-13 03:59N 26°04' W 080°08'0 0.0
2018-Jun-13 03:23N 26°04' W 080°08'0 0.0
2018-Jun-13 02:52N 26°04' W 080°08'0 0.0
2018-Jun-13 02:28N 26°04' W 080°08'0 0.0
2018-Jun-13 01:58N 26°04' W 080°08'0 0.0
2018-Jun-13 01:25N 26°04' W 080°08'0 0.0
2018-Jun-13 00:55N 26°04' W 080°08'0 0.0
2018-Jun-13 00:21N 26°04' W 080°08'0 0.0
2018-Jun-13 00:00N 26°04' W 080°08'0 0.0
2018-Jun-12 23:30N 26°04' W 080°08'0 0.0
2018-Jun-12 22:57N 26°04' W 080°08'0 0.0
2018-Jun-12 22:23N 26°04' W 080°08'0 0.0
2018-Jun-12 21:50N 26°04' W 080°08'0 0.0
2018-Jun-12 21:29N 26°04' W 080°08'0 0.0
2018-Jun-12 20:59N 26°04' W 080°08'0 0.0
2018-Jun-12 20:26N 26°04' W 080°08'0 0.0
2018-Jun-12 19:52N 26°04' W 080°08'0 0.0
2018-Jun-12 19:28N 26°04' W 080°08'0 0.0
2018-Jun-12 18:58N 26°04' W 080°08'0 0.0
2018-Jun-12 18:28N 26°04' W 080°08'0 0.0
2018-Jun-12 17:55N 26°04' W 080°08'0 0.0
2018-Jun-12 17:18N 26°04' W 080°08'0 0.0
2018-Jun-12 16:57N 26°04' W 080°08'0 0.0
2018-Jun-12 16:30N 26°04' W 080°08'0 0.0
2018-Jun-12 15:57N 26°04' W 080°08'0 0.0
2018-Jun-12 15:23N 26°04' W 080°08'0 0.0
2018-Jun-12 14:59N 26°04' W 080°08'0 0.0
2018-Jun-12 14:29N 26°04' W 080°08'0 0.0
2018-Jun-12 13:59N 26°04' W 080°08'0 0.0
2018-Jun-12 13:26N 26°04' W 080°08'0 0.0
2018-Jun-12 12:52N 26°04' W 080°08'0 0.0
2018-Jun-12 12:19N 26°04' W 080°08'0 0.0
2018-Jun-12 11:58N 26°04' W 080°08'0 0.0
2018-Jun-12 11:28N 26°04' W 080°08'0 0.0
2018-Jun-12 10:55N 26°04' W 080°08'0 0.0
2018-Jun-12 10:30N 26°04' W 080°08'0 0.0
2018-Jun-12 10:00N 26°04' W 080°08'0 0.0
2018-Jun-12 09:30N 26°04' W 080°08'0 0.0
2018-Jun-12 08:57N 26°04' W 080°08'0 0.0
2018-Jun-12 08:23N 26°04' W 080°08'0 0.0
2018-Jun-12 07:59N 26°04' W 080°08'0 0.0
2018-Jun-12 07:29N 26°04' W 080°08'0 0.0
2018-Jun-12 06:59N 26°04' W 080°08'0 0.0
2018-Jun-12 06:26N 26°04' W 080°08'0 0.0
2018-Jun-12 05:49N 26°04' W 080°08'0 0.0
2018-Jun-12 05:28N 26°04' W 080°08'0 0.0
2018-Jun-12 04:58N 26°04' W 080°08'0 0.0
2018-Jun-12 04:28N 26°04' W 080°08'0 0.0
2018-Jun-12 03:55N 26°04' W 080°08'0 0.0
2018-Jun-12 03:30N 26°04' W 080°08'0 0.0
2018-Jun-12 03:00N 26°04' W 080°08'0 0.0
2018-Jun-12 02:30N 26°04' W 080°08'0 0.0
2018-Jun-12 01:57N 26°04' W 080°08'0 0.0
2018-Jun-12 01:23N 26°04' W 080°08'0 0.0
2018-Jun-12 00:59N 26°04' W 080°08'0 0.0
2018-Jun-12 00:29N 26°04' W 080°08'0 0.0
2018-Jun-11 23:56N 26°04' W 080°08'0 0.0
2018-Jun-11 23:23N 26°04' W 080°08'0 0.0
2018-Jun-11 22:49N 26°04' W 080°08'0 0.0
2018-Jun-11 22:28N 26°04' W 080°08'0 0.0
2018-Jun-11 21:58N 26°04' W 080°08'0 0.0
2018-Jun-11 21:25N 26°04' W 080°08'0 0.0
2018-Jun-11 20:54N 26°04' W 080°08'0 0.0
2018-Jun-11 20:30N 26°04' W 080°08'0 0.0
2018-Jun-11 20:00N 26°04' W 080°08'0 0.0
2018-Jun-11 19:27N 26°04' W 080°08'0 0.0
2018-Jun-11 18:54N 26°04' W 080°08'0 0.0
2018-Jun-11 18:20N 26°04' W 080°08'0 0.0
2018-Jun-11 17:59N 26°04' W 080°08'0 0.0
2018-Jun-11 17:29N 26°04' W 080°08'0 0.0
2018-Jun-11 16:59N 26°04' W 080°08'0 0.0
2018-Jun-11 16:23N 26°04' W 080°08'0 0.0
2018-Jun-11 15:13N 26°04' W 080°08'0 0.0
2018-Jun-11 14:58N 26°04' W 080°08'0 0.0
2018-Jun-11 14:28N 26°04' W 080°08'0 0.0
2018-Jun-11 13:54N 26°04' W 080°08'0 0.0
2018-Jun-11 13:30N 26°04' W 080°08'0 0.0
2018-Jun-11 13:00N 26°04' W 080°08'0 0.0
2018-Jun-11 12:30N 26°04' W 080°08'0 0.0
2018-Jun-11 11:54N 26°04' W 080°08'0 0.0
2018-Jun-11 11:20N 26°04' W 080°08'0 0.0
2018-Jun-11 10:59N 26°04' W 080°08'0 0.0
2018-Jun-11 10:29N 26°04' W 080°08'0 0.0
2018-Jun-11 09:56N 26°04' W 080°08'  
Track history (hours):
 
Tides and Currents Weather Stations Pressure Air Temp Water Temp Dewpoint Dewpoint Depression Visibility Wind Speed Wind Dir Waves Ship Positions

Freedom

Last reported at 2018-Jun-21 09:31 UTC. Time now 2018-Jun-25 05:43 UTC.
Position N 41°09' W 072°22'.

Length 70 m; draft 3.8 m.

Type: Pleasure craft. MMSI: 319107000.

Date/timePositionNaut miles runAvg speedWind from/ knotsBaromVisibWave heightAir tempDewpointWater temp
2018-Jun-21 09:31N 41°09' W 072°22'0 8.2
2018-Jun-21 09:30N 41°09' W 072°22'4 8.2
2018-Jun-21 09:00N 41°09' W 072°27'4 8.1
2018-Jun-21 08:30N 41°08' W 072°32'4 7.3
2018-Jun-21 07:59N 41°07' W 072°37'64 7.0
2018-Jun-20 22:46N 40°45' W 073°58'310.6
2018-Jun-20 22:30N 40°43' W 073°58'3 5.5
2018-Jun-20 22:00N 40°42' W 074°02'2 4.1
2018-Jun-20 21:30N 40°44' W 074°01'0 0.2
2018-Jun-20 19:59N 40°44' W 074°01'2 3.8
2018-Jun-20 19:30N 40°42' W 074°02'0 0.9
2018-Jun-20 19:00N 40°42' W 074°02'0 0.0
2018-Jun-20 18:28N 40°42' W 074°02'0 0.0
2018-Jun-20 17:58N 40°42' W 074°02'0 0.0
2018-Jun-20 17:30N 40°42' W 074°02'0 0.0
2018-Jun-20 17:00N 40°42' W 074°02'0 0.0
2018-Jun-20 16:30N 40°42' W 074°02'0 0.0
2018-Jun-20 16:00N 40°42' W 074°02'0 0.0
2018-Jun-20 15:29N 40°42' W 074°02'0 0.0
2018-Jun-20 14:59N 40°42' W 074°02'0 0.0
2018-Jun-20 14:29N 40°42' W 074°02'0 0.0
2018-Jun-20 13:59N 40°42' W 074°02'0 0.0
2018-Jun-20 13:29N 40°42' W 074°02'0 0.0
2018-Jun-20 12:58N 40°42' W 074°02'0 0.0
2018-Jun-20 12:28N 40°42' W 074°02'0 0.0
2018-Jun-20 11:58N 40°42' W 074°02'0 0.0
2018-Jun-20 11:28N 40°42' W 074°02'0 0.0
2018-Jun-20 11:01N 40°42' W 074°02'0 0.0
2018-Jun-20 10:30N 40°42' W 074°02'0 0.0
2018-Jun-20 10:00N 40°42' W 074°02'0 0.0
2018-Jun-20 09:30N 40°42' W 074°02'0 0.0
2018-Jun-20 09:00N 40°42' W 074°02'0 0.0
2018-Jun-20 08:29N 40°42' W 074°02'0 0.0
2018-Jun-20 07:59N 40°42' W 074°02'0 0.0
2018-Jun-20 07:29N 40°42' W 074°02'0 0.0
2018-Jun-20 06:59N 40°42' W 074°02'0 0.0
2018-Jun-20 06:29N 40°42' W 074°02'0 0.0
2018-Jun-20 05:58N 40°42' W 074°02'0 0.0
2018-Jun-20 05:28N 40°42' W 074°02'0 0.0
2018-Jun-20 04:58N 40°42' W 074°02'0 0.0
2018-Jun-20 04:28N 40°42' W 074°02'0 0.0
2018-Jun-20 04:00N 40°42' W 074°02'0 0.0
2018-Jun-20 03:30N 40°42' W 074°02'0 0.0
2018-Jun-20 03:00N 40°42' W 074°02'0 0.0
2018-Jun-20 02:30N 40°42' W 074°02'0 0.0
2018-Jun-20 02:00N 40°42' W 074°02'0 0.0
2018-Jun-20 01:29N 40°42' W 074°02'0 0.0
2018-Jun-20 00:59N 40°42' W 074°02'0 0.0
2018-Jun-20 00:29N 40°42' W 074°02'0 0.0
2018-Jun-19 23:59N 40°42' W 074°02'0 0.0
2018-Jun-19 23:29N 40°42' W 074°02'0 0.0
2018-Jun-19 22:58N 40°42' W 074°02'0 0.0
2018-Jun-19 22:28N 40°42' W 074°02'0 0.0
2018-Jun-19 21:58N 40°42' W 074°02'0 0.0
2018-Jun-19 21:28N 40°42' W 074°02'0 0.0
2018-Jun-19 21:00N 40°42' W 074°02'0 0.0
2018-Jun-19 20:30N 40°42' W 074°02'0 0.1
2018-Jun-19 20:00N 40°42' W 074°02'0 0.0
2018-Jun-19 19:30N 40°42' W 074°02'0 0.0
2018-Jun-19 19:00N 40°42' W 074°02'0 0.0
2018-Jun-19 18:29N 40°42' W 074°02'0 0.0
2018-Jun-19 17:59N 40°42' W 074°02'0 0.0
2018-Jun-19 17:29N 40°42' W 074°02'0 0.0
2018-Jun-19 16:59N 40°42' W 074°02'0 0.0
2018-Jun-19 16:29N 40°42' W 074°02'0 0.0
2018-Jun-19 15:58N 40°42' W 074°02'0 0.0
2018-Jun-19 15:28N 40°42' W 074°02'0 0.0
2018-Jun-19 14:58N 40°42' W 074°02'0 0.0
2018-Jun-19 14:28N 40°42' W 074°02'0 0.0
2018-Jun-19 14:00N 40°42' W 074°02'0 0.0
2018-Jun-19 13:30N 40°42' W 074°02'0 0.0
2018-Jun-19 13:00N 40°42' W 074°02'0 0.0
2018-Jun-19 12:30N 40°42' W 074°02'0 0.0
2018-Jun-19 12:00N 40°42' W 074°02'0 0.0
2018-Jun-19 11:29N 40°42' W 074°02'0 0.0
2018-Jun-19 10:59N 40°42' W 074°02'0 0.0
2018-Jun-19 10:29N 40°42' W 074°02'0 0.0
2018-Jun-19 09:59N 40°42' W 074°02'0 0.0
2018-Jun-19 09:28N 40°42' W 074°02'0 0.0
2018-Jun-19 08:58N 40°42' W 074°02'0 0.0
2018-Jun-19 08:28N 40°42' W 074°02'0 0.0
2018-Jun-19 07:58N 40°42' W 074°02'0 0.0
2018-Jun-19 07:28N 40°42' W 074°02'0 0.0
2018-Jun-19 07:00N 40°42' W 074°02'0 0.0
2018-Jun-19 06:30N 40°42' W 074°02'0 0.0
2018-Jun-19 05:57N 40°42' W 074°02'0 0.0
2018-Jun-19 05:30N 40°42' W 074°02'0 0.0
2018-Jun-19 05:00N 40°42' W 074°02'0 0.0
2018-Jun-19 04:29N 40°42' W 074°02'0 0.0
2018-Jun-19 03:59N 40°42' W 074°02'0 0.0
2018-Jun-19 03:29N 40°42' W 074°02'0 0.0
2018-Jun-19 02:59N 40°42' W 074°02'0 0.1
2018-Jun-19 02:28N 40°42' W 074°02'0 0.0
2018-Jun-19 01:58N 40°42' W 074°02'0 0.0
2018-Jun-19 01:28N 40°42' W 074°02'0 0.0
2018-Jun-19 00:58N 40°42' W 074°02'0 0.0
2018-Jun-19 00:28N 40°42' W 074°02'0 0.0
2018-Jun-19 00:00N 40°42' W 074°02'0 0.0
2018-Jun-18 23:30N 40°42' W 074°02'0 0.0
2018-Jun-18 23:00N 40°42' W 074°02'0 0.1
2018-Jun-18 22:30N 40°42' W 074°02'0 0.0
2018-Jun-18 21:59N 40°42' W 074°02'0 0.0
2018-Jun-18 21:29N 40°42' W 074°02'0 0.1
2018-Jun-18 20:59N 40°42' W 074°02'0 0.0
2018-Jun-18 20:29N 40°42' W 074°02'0 0.0
2018-Jun-18 19:59N 40°42' W 074°02'0 0.0
2018-Jun-18 19:28N 40°42' W 074°02'0 0.0
2018-Jun-18 18:58N 40°42' W 074°02'0 0.0
2018-Jun-18 18:25N 40°42' W 074°02'0 0.0
2018-Jun-18 17:58N 40°42' W 074°02'0 0.0
2018-Jun-18 17:28N 40°42' W 074°02'0 0.0
2018-Jun-18 17:00N 40°42' W 074°02'0 0.0
2018-Jun-18 16:30N 40°42' W 074°02'0 0.0
2018-Jun-18 16:00N 40°42' W 074°02'0 0.0
2018-Jun-18 15:30N 40°42' W 074°02'0 0.1
2018-Jun-18 15:00N 40°42' W 074°02'0 0.0
2018-Jun-18 14:29N 40°42' W 074°02'0 0.0
2018-Jun-18 13:59N 40°42' W 074°02'0 0.0
2018-Jun-18 13:29N 40°42' W 074°02'0 0.0
2018-Jun-18 12:59N 40°42' W 074°02'0 0.0
2018-Jun-18 12:28N 40°42' W 074°02'0 0.0
2018-Jun-18 11:58N 40°42' W 074°02'0 0.0
2018-Jun-18 11:25N 40°42' W 074°02'0 0.0
2018-Jun-18 10:58N 40°42' W 074°02'0 0.0
2018-Jun-18 10:28N 40°42' W 074°02'0 0.0
2018-Jun-18 10:00N 40°42' W 074°02'0 0.0
2018-Jun-18 09:30N 40°42' W 074°02'0 0.0
2018-Jun-18 09:00N 40°42' W 074°02'0 0.0
2018-Jun-18 08:30N 40°42' W 074°02'0 0.0
2018-Jun-18 08:00N 40°42' W 074°02'0 0.0
2018-Jun-18 07:29N 40°42' W 074°02'0 0.0
2018-Jun-18 06:59N 40°42' W 074°02'0 0.0
2018-Jun-18 06:29N 40°42' W 074°02'0 0.1
2018-Jun-18 05:59N 40°42' W 074°02'0 0.0
2018-Jun-18 05:28N 40°42' W 074°02'0 0.0
2018-Jun-18 04:58N 40°42' W 074°02'0 0.0
2018-Jun-18 04:28N 40°42' W 074°02'0 0.0
2018-Jun-18 03:58N 40°42' W 074°02'0 0.0
2018-Jun-18 03:31N 40°42' W 074°02'0 0.0
2018-Jun-18 03:00N 40°42' W 074°02'0 0.0
2018-Jun-18 02:30N 40°42' W 074°02'0 0.0
2018-Jun-18 02:00N 40°42' W 074°02'0 0.0
2018-Jun-18 01:30N 40°42' W 074°02'0 0.0
2018-Jun-18 00:59N 40°42' W 074°02'0 0.0
2018-Jun-18 00:29N 40°42' W 074°02'0 0.0
2018-Jun-17 23:59N 40°42' W 074°02'0 0.0
2018-Jun-17 23:29N 40°42' W 074°02'0 0.0
2018-Jun-17 22:59N 40°42' W 074°02'0 0.0
2018-Jun-17 22:28N 40°42' W 074°02'0 0.0
2018-Jun-17 21:55N 40°42' W 074°02'0 0.0
2018-Jun-17 21:28N 40°42' W 074°02'0 0.0
2018-Jun-17 20:58N 40°42' W 074°02'0 0.0
2018-Jun-17 20:29N 40°42' W 074°02'0 0.1
2018-Jun-17 19:59N 40°42' W 074°02'0 0.0
2018-Jun-17 19:20N 40°42' W 074°02'0 0.0
2018-Jun-17 18:58N 40°42' W 074°02'0 0.0
2018-Jun-17 18:28N 40°42' W 074°02'0 0.0
2018-Jun-17 17:58N 40°42' W 074°02'0 0.0
2018-Jun-17 17:25N 40°42' W 074°02'0 0.0
2018-Jun-17 16:58N 40°42' W 074°02'0 0.0
2018-Jun-17 16:30N 40°42' W 074°02'0 0.0
2018-Jun-17 15:57N 40°42' W 074°02'0 0.0
2018-Jun-17 14:36N 40°42' W 074°02'0 0.1
2018-Jun-17 14:29N 40°42' W 074°02'0 0.0
2018-Jun-17 13:59N 40°42' W 074°02'0 0.0
2018-Jun-17 13:29N 40°42' W 074°02'0 0.0
2018-Jun-17 12:50N 40°42' W 074°02'0 0.0
2018-Jun-17 12:29N 40°42' W 074°02'0 0.0
2018-Jun-17 11:58N 40°42' W 074°02'0 0.0
2018-Jun-17 11:28N 40°42' W 074°02'1 1.4
2018-Jun-17 11:00N 40°41' W 074°02'4 7.2
2018-Jun-17 10:30N 40°38' W 074°03'107 9.8
2018-Jun-16 23:36N 38°51' W 073°55'112.0
2018-Jun-16 23:30N 38°50' W 073°55'  
2018-Jun-14 17:04N 26°16' W 079°57'215.0
2018-Jun-14 16:55N 26°14' W 079°58'614.6
2018-Jun-14 16:30N 26°09' W 080°01'611.6
2018-Jun-14 16:00N 26°06' W 080°07'0 0.3
2018-Jun-14 15:30N 26°05' W 080°07'1 3.0
2018-Jun-14 15:00N 26°04' W 080°07'1 1.6
2018-Jun-14 14:23N 26°04' W 080°08'0 0.0
2018-Jun-14 13:56N 26°04' W 080°08'0 0.0
2018-Jun-14 13:19N 26°04' W 080°08'0 0.0
2018-Jun-14 12:58N 26°04' W 080°08'0 0.0
2018-Jun-14 12:28N 26°04' W 080°08'0 0.0
2018-Jun-14 11:58N 26°04' W 080°08'0 0.0
2018-Jun-14 11:21N 26°04' W 080°08'0 0.0
2018-Jun-14 11:00N 26°04' W 080°08'0 0.0
2018-Jun-14 10:30N 26°04' W 080°08'0 0.0
2018-Jun-14 10:00N 26°04' W 080°08'0 0.0
2018-Jun-14 09:24N 26°04' W 080°08'0 0.0
2018-Jun-14 08:50N 26°04' W 080°08'0 0.0
2018-Jun-14 08:29N 26°04' W 080°08'0 0.0
2018-Jun-14 07:59N 26°04' W 080°08'0 0.0
2018-Jun-14 07:26N 26°04' W 080°08'0 0.0
2018-Jun-14 06:52N 26°04' W 080°08'0 0.0
2018-Jun-14 06:19N 26°04' W 080°08'0 0.0
2018-Jun-14 05:58N 26°04' W 080°08'0 0.0
2018-Jun-14 05:28N 26°04' W 080°08'0 0.0
2018-Jun-14 04:55N 26°04' W 080°08'0 0.0
2018-Jun-14 04:21N 26°04' W 080°08'0 0.0
2018-Jun-14 04:00N 26°04' W 080°08'0 0.0
2018-Jun-14 03:30N 26°04' W 080°08'0 0.0
2018-Jun-14 02:57N 26°04' W 080°08'0 0.0
2018-Jun-14 02:24N 26°04' W 080°08'0 0.0
2018-Jun-14 01:50N 26°04' W 080°08'0 0.0
2018-Jun-14 01:29N 26°04' W 080°08'0 0.0
2018-Jun-14 00:59N 26°04' W 080°08'0 0.0
2018-Jun-14 00:26N 26°04' W 080°08'0 0.0
2018-Jun-13 23:52N 26°04' W 080°08'0 0.0
2018-Jun-13 23:19N 26°04' W 080°08'0 0.0
2018-Jun-13 22:58N 26°04' W 080°08'0 0.0
2018-Jun-13 22:28N 26°04' W 080°08'0 0.0
2018-Jun-13 21:55N 26°04' W 080°08'0 0.0
2018-Jun-13 21:21N 26°04' W 080°08'0 0.0
2018-Jun-13 21:00N 26°04' W 080°08'0 0.0
2018-Jun-13 20:30N 26°04' W 080°08'0 0.0
2018-Jun-13 19:57N 26°04' W 080°08'0 0.0
2018-Jun-13 19:24N 26°04' W 080°08'0 0.0
2018-Jun-13 18:47N 26°04' W 080°08'0 0.0
2018-Jun-13 18:17N 26°04' W 080°08'0 0.0
2018-Jun-13 17:59N 26°04' W 080°08'0 0.0
2018-Jun-13 17:26N 26°04' W 080°08'0 0.0
2018-Jun-13 16:52N 26°04' W 080°08'0 0.0
2018-Jun-13 16:19N 26°04' W 080°08'0 0.0
2018-Jun-13 15:58N 26°04' W 080°08'0 0.0
2018-Jun-13 15:28N 26°04' W 080°08'0 0.0
2018-Jun-13 14:55N 26°04' W 080°08'0 0.0
2018-Jun-13 14:21N 26°04' W 080°08'0 0.0
2018-Jun-13 13:48N 26°04' W 080°08'0 0.0
2018-Jun-13 13:30N 26°04' W 080°08'0 0.0
2018-Jun-13 12:57N 26°04' W 080°08'0 0.0
2018-Jun-13 12:24N 26°04' W 080°08'0 0.0
2018-Jun-13 11:50N 26°04' W 080°08'0 0.0
2018-Jun-13 11:29N 26°04' W 080°08'0 0.0
2018-Jun-13 10:59N 26°04' W 080°08'0 0.0
2018-Jun-13 10:26N 26°04' W 080°08'0 0.0
2018-Jun-13 09:52N 26°04' W 080°08'0 0.0
2018-Jun-13 09:28N 26°04' W 080°08'0 0.0
2018-Jun-13 08:58N 26°04' W 080°08'0 0.0
2018-Jun-13 08:28N 26°04' W 080°08'0 0.0
2018-Jun-13 07:55N 26°04' W 080°08'0 0.0
2018-Jun-13 07:21N 26°04' W 080°08'0 0.0
2018-Jun-13 07:00N 26°04' W 080°08'0 0.0
2018-Jun-13 06:30N 26°04' W 080°08'0 0.0
2018-Jun-13 05:57N 26°04' W 080°08'0 0.0
2018-Jun-13 05:23N 26°04' W 080°08'0 0.0
2018-Jun-13 04:59N 26°04' W 080°08'0 0.0
2018-Jun-13 04:29N 26°04' W 080°08'0 0.0
2018-Jun-13 03:59N 26°04' W 080°08'0 0.0
2018-Jun-13 03:23N 26°04' W 080°08'0 0.0
2018-Jun-13 02:52N 26°04' W 080°08'0 0.0
2018-Jun-13 02:28N 26°04' W 080°08'0 0.0
2018-Jun-13 01:58N 26°04' W 080°08'0 0.0
2018-Jun-13 01:25N 26°04' W 080°08'0 0.0
2018-Jun-13 00:55N 26°04' W 080°08'0 0.0
2018-Jun-13 00:21N 26°04' W 080°08'0 0.0
2018-Jun-13 00:00N 26°04' W 080°08'0 0.0
2018-Jun-12 23:30N 26°04' W 080°08'0 0.0
2018-Jun-12 22:57N 26°04' W 080°08'0 0.0
2018-Jun-12 22:23N 26°04' W 080°08'0 0.0
2018-Jun-12 21:50N 26°04' W 080°08'0 0.0
2018-Jun-12 21:29N 26°04' W 080°08'0 0.0
2018-Jun-12 20:59N 26°04' W 080°08'0 0.0
2018-Jun-12 20:26N 26°04' W 080°08'0 0.0
2018-Jun-12 19:52N 26°04' W 080°08'0 0.0
2018-Jun-12 19:28N 26°04' W 080°08'0 0.0
2018-Jun-12 18:58N 26°04' W 080°08'0 0.0
2018-Jun-12 18:28N 26°04' W 080°08'0 0.0
2018-Jun-12 17:55N 26°04' W 080°08'0 0.0
2018-Jun-12 17:18N 26°04' W 080°08'0 0.0
2018-Jun-12 16:57N 26°04' W 080°08'0 0.0
2018-Jun-12 16:30N 26°04' W 080°08'0 0.0
2018-Jun-12 15:57N 26°04' W 080°08'0 0.0
2018-Jun-12 15:23N 26°04' W 080°08'0 0.0
2018-Jun-12 14:59N 26°04' W 080°08'0 0.0
2018-Jun-12 14:29N 26°04' W 080°08'0 0.0
2018-Jun-12 13:59N 26°04' W 080°08'0 0.0
2018-Jun-12 13:26N 26°04' W 080°08'0 0.0
2018-Jun-12 12:52N 26°04' W 080°08'0 0.0
2018-Jun-12 12:19N 26°04' W 080°08'0 0.0
2018-Jun-12 11:58N 26°04' W 080°08'0 0.0
2018-Jun-12 11:28N 26°04' W 080°08'0 0.0
2018-Jun-12 10:55N 26°04' W 080°08'0 0.0
2018-Jun-12 10:30N 26°04' W 080°08'0 0.0
2018-Jun-12 10:00N 26°04' W 080°08'0 0.0
2018-Jun-12 09:30N 26°04' W 080°08'0 0.0
2018-Jun-12 08:57N 26°04' W 080°08'0 0.0
2018-Jun-12 08:23N 26°04' W 080°08'0 0.0
2018-Jun-12 07:59N 26°04' W 080°08'0 0.0
2018-Jun-12 07:29N 26°04' W 080°08'0 0.0
2018-Jun-12 06:59N 26°04' W 080°08'0 0.0
2018-Jun-12 06:26N 26°04' W 080°08'0 0.0
2018-Jun-12 05:49N 26°04' W 080°08'0 0.0
2018-Jun-12 05:28N 26°04' W 080°08'0 0.0
2018-Jun-12 04:58N 26°04' W 080°08'0 0.0
2018-Jun-12 04:28N 26°04' W 080°08'0 0.0
2018-Jun-12 03:55N 26°04' W 080°08'0 0.0
2018-Jun-12 03:30N 26°04' W 080°08'0 0.0
2018-Jun-12 03:00N 26°04' W 080°08'0 0.0
2018-Jun-12 02:30N 26°04' W 080°08'0 0.0
2018-Jun-12 01:57N 26°04' W 080°08'0 0.0
2018-Jun-12 01:23N 26°04' W 080°08'0 0.0
2018-Jun-12 00:59N 26°04' W 080°08'0 0.0
2018-Jun-12 00:29N 26°04' W 080°08'0 0.0
2018-Jun-11 23:56N 26°04' W 080°08'0 0.0
2018-Jun-11 23:23N 26°04' W 080°08'0 0.0
2018-Jun-11 22:49N 26°04' W 080°08'0 0.0
2018-Jun-11 22:28N 26°04' W 080°08'0 0.0
2018-Jun-11 21:58N 26°04' W 080°08'0 0.0
2018-Jun-11 21:25N 26°04' W 080°08'0 0.0
2018-Jun-11 20:54N 26°04' W 080°08'0 0.0
2018-Jun-11 20:30N 26°04' W 080°08'0 0.0
2018-Jun-11 20:00N 26°04' W 080°08'0 0.0
2018-Jun-11 19:27N 26°04' W 080°08'0 0.0
2018-Jun-11 18:54N 26°04' W 080°08'0 0.0
2018-Jun-11 18:20N 26°04' W 080°08'0 0.0
2018-Jun-11 17:59N 26°04' W 080°08'0 0.0
2018-Jun-11 17:29N 26°04' W 080°08'0 0.0
2018-Jun-11 16:59N 26°04' W 080°08'0 0.0
2018-Jun-11 16:23N 26°04' W 080°08'0 0.0
2018-Jun-11 15:13N 26°04' W 080°08'0 0.0
2018-Jun-11 14:58N 26°04' W 080°08'0 0.0
2018-Jun-11 14:28N 26°04' W 080°08'0 0.0
2018-Jun-11 13:54N 26°04' W 080°08'0 0.0
2018-Jun-11 13:30N 26°04' W 080°08'0 0.0
2018-Jun-11 13:00N 26°04' W 080°08'0 0.0
2018-Jun-11 12:30N 26°04' W 080°08'0 0.0
2018-Jun-11 11:54N 26°04' W 080°08'0 0.0
2018-Jun-11 11:20N 26°04' W 080°08'0 0.0
2018-Jun-11 10:59N 26°04' W 080°08'0 0.0
2018-Jun-11 10:29N 26°04' W 080°08'0 0.0
2018-Jun-11 09:56N 26°04' W 080°08'  

Dump ship's entire track history